Time;durP1;ratioP1;P1;durP2;ratioP2;P2;SDS_P1;SDS_P2;PMS_P1;PMS_P2;Temp;Humidity;BMP_temperature;BMP_pressure;BME280_temperature;BME280_humidity;BME280_pressure;Samples;Min_cycle;Max_cycle;Signal;HPM_P1;HPM_P2
2021/03/29 00:02:06;;;;;;;10.18;5.65;;;8.60;59.70;;;;;;5091860;28;27489;-61
2021/03/29 00:04:50;;;;;;;10.05;5.25;;;8.60;59.70;;;;;;5104529;28;27403;-61
2021/03/29 00:07:35;;;;;;;12.68;5.32;;;8.60;59.70;;;;;;5092347;28;27510;-61
2021/03/29 00:10:19;;;;;;;10.05;5.50;;;8.50;59.70;;;;;;5092644;28;27502;-62
2021/03/29 00:13:04;;;;;;;8.95;4.78;;;8.60;59.90;;;;;;5092451;28;27508;-61
2021/03/29 00:15:49;;;;;;;9.52;4.68;;;8.50;59.90;;;;;;5104227;28;27407;-61
2021/03/29 00:18:34;;;;;;;9.23;4.50;;;8.50;59.90;;;;;;5107343;28;27832;-61
2021/03/29 00:21:18;;;;;;;8.13;4.03;;;8.50;60.00;;;;;;5107592;28;27384;-61
2021/03/29 00:24:06;;;;;;;9.65;4.28;;;8.50;59.90;;;;;;5092168;28;27428;-61
2021/03/29 00:26:51;;;;;;;7.80;4.10;;;8.50;60.00;;;;;;5107241;28;27380;-61
2021/03/29 00:29:35;;;;;;;5.78;3.85;;;8.50;60.10;;;;;;5091549;28;27422;-61
2021/03/29 00:32:19;;;;;;;11.70;5.15;;;8.40;60.00;;;;;;5092301;28;27480;-61
2021/03/29 00:35:05;;;;;;;8.27;4.18;;;8.50;60.20;;;;;;5077774;28;27365;-61
2021/03/29 00:37:54;;;;;;;7.00;4.25;;;8.50;60.20;;;;;;5092260;28;27430;-61
2021/03/29 00:40:50;;;;;;;6.75;3.83;;;8.50;60.30;;;;;;5092144;28;27460;-61
2021/03/29 00:43:40;;;;;;;6.32;4.25;;;8.40;60.20;;;;;;5106454;28;27316;-61
2021/03/29 00:46:24;;;;;;;9.00;4.32;;;8.40;60.20;;;;;;5073990;28;27504;-61
2021/03/29 00:49:09;;;;;;;6.95;4.45;;;8.40;60.30;;;;;;5088498;28;27408;-61
2021/03/29 00:51:54;;;;;;;7.07;3.83;;;8.40;60.40;;;;;;5074119;28;27301;-61
2021/03/29 00:54:39;;;;;;;7.60;4.55;;;8.40;60.40;;;;;;5088740;28;27486;-61
2021/03/29 00:57:23;;;;;;;6.80;3.90;;;8.40;60.50;;;;;;5077252;28;27436;-61
2021/03/29 01:00:26;;;;;;;5.45;3.40;;;8.30;60.60;;;;;;5091897;28;27321;-61
2021/03/29 01:03:15;;;;;;;7.78;4.00;;;8.30;60.60;;;;;;5106966;28;27340;-61
2021/03/29 01:06:08;;;;;;;6.07;3.35;;;8.30;60.70;;;;;;5106732;28;27592;-61
2021/03/29 01:08:54;;;;;;;6.15;3.75;;;8.20;60.70;;;;;;5103361;28;27474;-61
2021/03/29 01:11:44;;;;;;;5.97;3.65;;;8.20;60.70;;;;;;5091551;27;27398;-61
2021/03/29 01:14:37;;;;;;;6.15;3.13;;;8.20;60.90;;;;;;5103279;28;27407;-61
2021/03/29 01:17:22;;;;;;;7.82;3.08;;;8.10;60.90;;;;;;5106699;28;27466;-61
2021/03/29 01:20:12;;;;;;;5.38;3.63;;;8.10;61.00;;;;;;5091393;28;27503;-61
2021/03/29 01:22:56;;;;;;;5.05;3.17;;;8.10;61.00;;;;;;5106392;28;27387;-61
2021/03/29 01:25:44;;;;;;;6.15;3.47;;;8.00;60.90;;;;;;5090492;28;27938;-61
2021/03/29 01:28:29;;;;;;;6.53;3.65;;;8.00;61.00;;;;;;5106731;28;27598;-61
2021/03/29 01:31:13;;;;;;;5.28;3.42;;;8.00;61.10;;;;;;5091457;28;27388;-61
2021/03/29 01:33:58;;;;;;;4.32;2.63;;;7.90;61.10;;;;;;5076827;28;27457;-61
2021/03/29 01:36:43;;;;;;;4.57;2.25;;;7.90;61.20;;;;;;5076877;28;27334;-61
2021/03/29 01:39:28;;;;;;;5.13;2.92;;;7.90;61.30;;;;;;5103112;28;27274;-61
2021/03/29 01:42:13;;;;;;;5.70;3.13;;;7.80;61.30;;;;;;5106428;28;27407;-61
2021/03/29 01:44:57;;;;;;;4.70;2.92;;;7.80;61.40;;;;;;5069759;28;27610;-61
2021/03/29 01:47:42;;;;;;;4.15;2.40;;;7.80;61.50;;;;;;5085525;28;27401;-61
2021/03/29 01:50:31;;;;;;;7.97;2.67;;;7.70;61.40;;;;;;5085830;28;27403;-61
2021/03/29 01:53:15;;;;;;;4.95;2.60;;;7.70;61.40;;;;;;5085118;28;27486;-61
2021/03/29 01:56:00;;;;;;;4.32;2.85;;;7.70;61.50;;;;;;5084957;28;27466;-61
2021/03/29 01:58:45;;;;;;;6.07;2.80;;;7.60;61.60;;;;;;5081671;28;27837;-61
2021/03/29 02:01:29;;;;;;;4.40;2.58;;;7.60;61.70;;;;;;5084483;28;27427;-61
2021/03/29 02:04:13;;;;;;;5.65;2.17;;;7.50;61.80;;;;;;5081610;28;27386;-61
2021/03/29 02:07:00;;;;;;;5.47;2.75;;;7.50;61.80;;;;;;5084503;28;27394;-61
2021/03/29 02:09:44;;;;;;;5.15;2.33;;;7.40;61.80;;;;;;5084452;28;27482;-61
2021/03/29 02:12:29;;;;;;;4.68;2.70;;;7.40;61.90;;;;;;5084387;28;27412;-62
2021/03/29 02:15:20;;;;;;;3.20;1.98;;;7.40;62.00;;;;;;5084475;28;27374;-61
2021/03/29 02:18:08;;;;;;;3.75;2.38;;;7.30;62.10;;;;;;5085159;28;27419;-61
2021/03/29 02:20:57;;;;;;;3.67;2.45;;;7.30;62.10;;;;;;5084854;28;27368;-61
2021/03/29 02:23:42;;;;;;;2.28;1.88;;;7.30;62.20;;;;;;5084623;28;27466;-61
2021/03/29 02:26:32;;;;;;;4.68;2.47;;;7.30;62.20;;;;;;5085047;28;27419;-61
2021/03/29 02:29:20;;;;;;;4.22;2.42;;;7.20;62.20;;;;;;5070070;28;27381;-61
2021/03/29 02:32:05;;;;;;;4.78;2.00;;;7.20;62.30;;;;;;5084834;28;27856;-61
2021/03/29 02:34:49;;;;;;;4.53;2.60;;;7.20;62.50;;;;;;5084329;28;27428;-62
2021/03/29 02:37:34;;;;;;;3.85;2.67;;;7.20;62.50;;;;;;5084127;28;27399;-60
2021/03/29 02:40:20;;;;;;;3.80;2.20;;;7.20;62.50;;;;;;5066602;28;27316;-61
2021/03/29 02:43:05;;;;;;;3.95;2.35;;;7.10;62.30;;;;;;5086849;28;27403;-61
2021/03/29 02:45:55;;;;;;;8.20;2.90;;;7.20;62.30;;;;;;5105291;28;27423;-61
2021/03/29 02:48:41;;;;;;;4.35;2.42;;;7.20;62.30;;;;;;5104780;28;27564;-61
2021/03/29 02:51:26;;;;;;;4.97;2.13;;;7.10;62.30;;;;;;5105022;28;27391;-62
2021/03/29 02:54:10;;;;;;;3.38;2.17;;;7.10;62.40;;;;;;5104980;28;27329;-61
2021/03/29 02:56:54;;;;;;;5.40;2.30;;;7.10;62.40;;;;;;5089696;28;27415;-61
2021/03/29 02:59:39;;;;;;;2.80;2.28;;;7.00;62.40;;;;;;5090078;28;27439;-61
2021/03/29 03:02:23;;;;;;;3.53;2.60;;;7.00;62.40;;;;;;5057888;28;27426;-61
2021/03/29 03:05:08;;;;;;;3.97;2.28;;;7.00;62.40;;;;;;5089692;28;27484;-61
2021/03/29 03:07:53;;;;;;;5.82;2.70;;;7.00;62.60;;;;;;5101799;28;27514;-61
2021/03/29 03:10:37;;;;;;;4.70;2.30;;;6.90;62.50;;;;;;5089973;28;27427;-61
2021/03/29 03:13:22;;;;;;;7.03;2.55;;;6.90;62.40;;;;;;5089601;28;27415;-61
2021/03/29 03:16:06;;;;;;;5.20;2.45;;;6.80;62.40;;;;;;5074489;28;27497;-61
2021/03/29 03:18:51;;;;;;;5.30;2.20;;;6.80;62.60;;;;;;5075135;28;27491;-61
2021/03/29 03:21:36;;;;;;;4.40;2.80;;;6.80;62.60;;;;;;5089812;28;27491;-61
2021/03/29 03:24:30;;;;;;;4.22;2.30;;;6.80;62.70;;;;;;5104499;28;27446;-61
2021/03/29 03:27:15;;;;;;;5.35;2.33;;;6.70;62.70;;;;;;5087745;28;27468;-61
2021/03/29 03:29:59;;;;;;;4.20;2.42;;;6.70;62.80;;;;;;5104824;28;27400;-61
2021/03/29 03:32:44;;;;;;;6.15;2.67;;;6.60;63.00;;;;;;5104741;28;27418;-61
2021/03/29 03:35:29;;;;;;;4.88;2.58;;;6.60;62.90;;;;;;5089557;28;27391;-61
2021/03/29 03:38:26;;;;;;;6.18;2.20;;;6.60;63.00;;;;;;5104755;28;27337;-61
2021/03/29 03:41:13;;;;;;;4.00;2.17;;;6.60;63.00;;;;;;5108266;28;27495;-61
2021/03/29 03:43:59;;;;;;;5.18;2.70;;;6.50;63.00;;;;;;5106759;28;27474;-61
2021/03/29 03:46:43;;;;;;;8.00;2.10;;;6.50;63.10;;;;;;5092906;28;26927;-61
2021/03/29 03:49:28;;;;;;;3.38;1.90;;;6.50;63.90;;;;;;5078646;28;27439;-61
2021/03/29 03:52:12;;;;;;;4.93;2.45;;;6.40;63.10;;;;;;5092898;28;27420;-61
2021/03/29 03:54:57;;;;;;;2.95;2.17;;;6.40;63.10;;;;;;5060936;28;27441;-62
2021/03/29 03:57:42;;;;;;;7.35;3.08;;;6.40;63.10;;;;;;5108060;28;27520;-61
2021/03/29 04:00:26;;;;;;;9.32;2.97;;;6.30;63.10;;;;;;5107743;28;28075;-62
2021/03/29 04:03:11;;;;;;;5.82;2.92;;;6.30;63.30;;;;;;5089337;28;27431;-62
2021/03/29 04:05:56;;;;;;;12.20;3.42;;;6.30;63.30;;;;;;5107737;28;27392;-61
2021/03/29 04:08:43;;;;;;;6.07;3.28;;;6.30;63.30;;;;;;5107645;28;27449;-62
2021/03/29 04:11:28;;;;;;;8.05;3.38;;;6.20;63.30;;;;;;5107345;28;27627;-62
2021/03/29 04:14:13;;;;;;;6.38;3.10;;;6.20;63.30;;;;;;5107741;28;27474;-61
2021/03/29 04:16:58;;;;;;;6.57;3.60;;;6.20;63.40;;;;;;5107539;28;27463;-62
2021/03/29 04:19:42;;;;;;;7.43;3.50;;;6.10;63.50;;;;;;5092586;28;27427;-62
2021/03/29 04:22:27;;;;;;;12.23;4.45;;;6.10;63.50;;;;;;5107306;28;27839;-61
2021/03/29 04:25:13;;;;;;;10.10;3.22;;;6.10;63.40;;;;;;5107242;28;27501;-62
2021/03/29 04:27:57;;;;;;;6.93;2.45;;;6.00;63.50;;;;;;5107612;28;27471;-62
2021/03/29 04:30:41;;;;;;;8.43;2.75;;;6.00;63.60;;;;;;5088704;28;27478;-62
2021/03/29 04:33:26;;;;;;;6.45;2.85;;;6.00;63.60;;;;;;5107268;28;27516;-62
2021/03/29 04:36:10;;;;;;;5.00;2.67;;;6.00;63.70;;;;;;5106956;28;27434;-62
2021/03/29 04:38:55;;;;;;;5.88;2.70;;;6.00;63.80;;;;;;5106763;28;27485;-62
2021/03/29 04:41:39;;;;;;;3.78;2.50;;;5.90;63.80;;;;;;5107309;28;27299;-62
2021/03/29 04:44:24;;;;;;;5.50;3.05;;;5.90;63.80;;;;;;5105772;28;28077;-62
2021/03/29 04:47:08;;;;;;;5.75;2.92;;;5.90;63.80;;;;;;5106366;27;27391;-61
2021/03/29 04:49:52;;;;;;;4.55;2.80;;;5.90;63.90;;;;;;5106973;28;27389;-62
2021/03/29 04:52:37;;;;;;;5.60;2.92;;;5.80;63.90;;;;;;5091677;28;27387;-62
2021/03/29 04:55:21;;;;;;;5.50;3.08;;;5.80;64.00;;;;;;5106959;28;28058;-61
2021/03/29 04:58:06;;;;;;;8.02;3.55;;;5.80;64.00;;;;;;5107060;28;27420;-61
2021/03/29 05:00:50;;;;;;;7.03;2.35;;;5.80;64.00;;;;;;5107061;28;27396;-61
2021/03/29 05:03:34;;;;;;;4.53;3.05;;;5.80;64.10;;;;;;5107011;28;27387;-62
2021/03/29 05:06:19;;;;;;;6.78;3.05;;;5.80;64.20;;;;;;5106493;28;27431;-62
2021/03/29 05:09:04;;;;;;;6.43;2.50;;;5.70;64.00;;;;;;5106599;28;27479;-62
2021/03/29 05:11:54;;;;;;;4.28;2.55;;;5.80;64.20;;;;;;5106935;28;27408;-62
2021/03/29 05:14:39;;;;;;;3.85;2.33;;;5.70;64.10;;;;;;5106622;28;27334;-61
2021/03/29 05:17:24;;;;;;;4.82;2.15;;;5.70;63.90;;;;;;5106433;28;27378;-62
2021/03/29 05:20:09;;;;;;;3.35;2.33;;;5.70;64.00;;;;;;5106448;28;27351;-61
2021/03/29 05:22:54;;;;;;;6.35;2.42;;;5.70;64.00;;;;;;5106787;28;27401;-62
2021/03/29 05:25:38;;;;;;;5.05;2.70;;;5.70;64.90;;;;;;5091570;28;27403;-62
2021/03/29 05:28:23;;;;;;;8.90;2.88;;;5.70;64.00;;;;;;5106536;28;27353;-61
2021/03/29 05:31:08;;;;;;;6.63;2.75;;;5.70;64.10;;;;;;5106535;28;27348;-62
2021/03/29 05:33:53;;;;;;;4.55;2.38;;;5.70;64.10;;;;;;5106041;28;27667;-61
2021/03/29 05:36:38;;;;;;;5.82;2.83;;;5.80;64.20;;;;;;5106305;28;27329;-61
2021/03/29 05:39:23;;;;;;;4.95;2.35;;;5.80;64.00;;;;;;5106428;28;27410;-61
2021/03/29 05:42:08;;;;;;;5.15;2.72;;;5.80;64.00;;;;;;5106440;28;27391;-62
2021/03/29 05:44:58;;;;;;;5.90;2.67;;;5.80;64.00;;;;;;5105492;28;27455;-61
2021/03/29 05:47:42;;;;;;;3.17;2.25;;;5.80;64.00;;;;;;5106005;28;27460;-61
2021/03/29 05:50:27;;;;;;;4.38;2.60;;;5.80;63.90;;;;;;5106189;28;27440;-61
2021/03/29 05:53:11;;;;;;;9.30;2.60;;;5.90;63.90;;;;;;5106095;28;27484;-62
2021/03/29 05:55:58;;;;;;;5.85;3.03;;;6.00;63.90;;;;;;5106104;28;27408;-62
2021/03/29 05:59:02;;;;;;;5.20;2.83;;;6.10;63.80;;;;;;5090292;28;27463;-61
2021/03/29 06:01:48;;;;;;;5.60;2.55;;;6.20;64.50;;;;;;5102760;28;27437;-61
2021/03/29 06:04:42;;;;;;;5.68;2.70;;;6.30;63.50;;;;;;5106002;28;27510;-61
2021/03/29 06:07:31;;;;;;;4.38;2.28;;;6.40;63.40;;;;;;5105815;28;27395;-62
2021/03/29 06:10:16;;;;;;;7.38;2.65;;;6.50;63.20;;;;;;5102378;28;27348;-61
2021/03/29 06:13:00;;;;;;;3.53;2.55;;;6.60;63.10;;;;;;5105955;28;27847;-62
2021/03/29 06:15:45;;;;;;;4.18;2.67;;;6.70;62.80;;;;;;5076040;28;27345;-62
2021/03/29 06:18:30;;;;;;;6.82;2.85;;;6.90;62.90;;;;;;5105612;28;27392;-61
2021/03/29 06:21:15;;;;;;;4.97;3.08;;;7.00;62.90;;;;;;5087085;28;27323;-62
2021/03/29 06:23:59;;;;;;;4.07;2.47;;;7.20;62.50;;;;;;5105724;28;27454;-61
2021/03/29 06:26:44;;;;;;;4.00;2.47;;;7.30;62.20;;;;;;5102465;28;27407;-61
2021/03/29 06:29:28;;;;;;;4.35;2.30;;;7.50;62.90;;;;;;5090136;28;27509;-61
2021/03/29 06:32:19;;;;;;;6.03;2.88;;;7.70;61.90;;;;;;5105649;28;26924;-61
2021/03/29 06:35:18;;;;;;;3.45;2.45;;;7.90;61.60;;;;;;5105467;28;27985;-60
2021/03/29 06:38:09;;;;;;;6.13;2.30;;;8.10;61.40;;;;;;5102177;28;27404;-60
2021/03/29 06:40:59;;;;;;;6.20;2.80;;;8.30;61.00;;;;;;5090147;28;27357;-60
2021/03/29 06:43:44;;;;;;;5.72;3.00;;;8.50;60.40;;;;;;5104803;28;27619;-60
2021/03/29 06:46:29;;;;;;;6.00;2.63;;;8.70;60.10;;;;;;5105464;28;27493;-60
2021/03/29 06:49:14;;;;;;;3.65;2.55;;;8.90;59.60;;;;;;5105091;28;27466;-59
2021/03/29 06:51:59;;;;;;;6.40;3.15;;;9.10;59.30;;;;;;5104485;28;27499;-60
2021/03/29 06:54:44;;;;;;;6.50;2.88;;;9.30;58.90;;;;;;5075395;28;27461;-59
2021/03/29 06:57:29;;;;;;;5.18;2.80;;;9.50;58.50;;;;;;5089660;28;27443;-59
2021/03/29 07:00:15;;;;;;;4.60;2.92;;;9.70;58.30;;;;;;5105135;28;27466;-59
2021/03/29 07:03:01;;;;;;;4.10;2.58;;;9.90;58.00;;;;;;5105230;28;26970;-59
2021/03/29 07:05:46;;;;;;;5.57;3.03;;;10.10;57.60;;;;;;5105072;28;27344;-59
2021/03/29 07:08:31;;;;;;;5.10;2.90;;;10.30;57.30;;;;;;5090092;28;27380;-59
2021/03/29 07:11:17;;;;;;;7.30;2.72;;;10.60;57.40;;;;;;5089401;28;27341;-59
2021/03/29 07:14:03;;;;;;;5.65;3.03;;;10.80;56.90;;;;;;5105057;28;27392;-59
2021/03/29 07:16:48;;;;;;;5.47;2.80;;;11.10;56.60;;;;;;5104459;28;27390;-60
2021/03/29 07:19:32;;;;;;;4.70;3.00;;;11.30;56.20;;;;;;5089726;28;27910;-59
2021/03/29 07:22:18;;;;;;;5.30;2.70;;;11.60;56.00;;;;;;5088812;28;27586;-60
2021/03/29 07:25:08;;;;;;;4.20;2.95;;;11.80;55.50;;;;;;5104584;28;27340;-60
2021/03/29 07:27:54;;;;;;;5.75;3.00;;;12.10;55.20;;;;;;5104813;28;27446;-59
2021/03/29 07:30:49;;;;;;;5.95;2.60;;;12.20;55.00;;;;;;5089613;28;27419;-60
2021/03/29 07:33:51;;;;;;;4.90;2.75;;;12.40;54.70;;;;;;5104407;28;27419;-60
2021/03/29 07:36:46;;;;;;;5.65;2.88;;;12.60;54.20;;;;;;5104516;28;27462;-60
2021/03/29 07:39:38;;;;;;;4.07;2.50;;;12.70;53.90;;;;;;5104582;28;27329;-60
2021/03/29 07:42:23;;;;;;;6.00;2.65;;;12.90;53.90;;;;;;5089069;28;27377;-60
2021/03/29 07:45:10;;;;;;;6.13;3.25;;;13.10;53.50;;;;;;5102879;28;27436;-59
2021/03/29 07:47:57;;;;;;;7.32;2.58;;;13.80;52.30;;;;;;5103880;28;27448;-59
2021/03/29 07:50:41;;;;;;;3.88;2.47;;;14.70;50.60;;;;;;5089306;28;27477;-59
2021/03/29 07:53:40;;;;;;;6.05;2.58;;;15.80;48.60;;;;;;5104401;28;27431;-59
2021/03/29 07:56:33;;;;;;;7.53;2.70;;;17.00;46.50;;;;;;5104110;28;27421;-59
2021/03/29 07:59:47;;;;;;;4.03;3.00;;;17.90;44.90;;;;;;5086014;28;27428;-60
2021/03/29 08:02:33;;;;;;;4.57;2.47;;;18.80;43.60;;;;;;5104417;28;27486;-59
2021/03/29 08:05:42;;;;;;;4.10;2.55;;;19.60;42.40;;;;;;5104318;28;27423;-60
2021/03/29 08:08:27;;;;;;;3.83;2.00;;;20.40;41.40;;;;;;5103990;28;27368;-59
2021/03/29 08:11:17;;;;;;;5.57;2.58;;;20.80;40.50;;;;;;5104304;28;27379;-59
2021/03/29 08:14:02;;;;;;;6.70;2.60;;;21.30;40.00;;;;;;5103903;28;27372;-60
2021/03/29 08:16:46;;;;;;;4.60;2.35;;;21.70;39.50;;;;;;5103290;28;27459;-60
2021/03/29 08:19:31;;;;;;;7.90;2.97;;;22.10;39.00;;;;;;5104184;28;27478;-60
2021/03/29 08:22:15;;;;;;;3.38;2.13;;;22.50;38.20;;;;;;5105335;27;27462;-60
2021/03/29 08:25:00;;;;;;;3.67;2.15;;;22.80;38.00;;;;;;5107388;28;27423;-60
2021/03/29 08:27:56;;;;;;;3.30;2.13;;;23.10;37.60;;;;;;5107635;28;27338;-60
2021/03/29 08:30:41;;;;;;;6.10;2.10;;;23.50;36.90;;;;;;5092987;28;27506;-59
2021/03/29 08:33:26;;;;;;;5.30;2.55;;;23.90;36.50;;;;;;5107313;28;27443;-60
2021/03/29 08:36:10;;;;;;;3.60;2.30;;;24.30;35.80;;;;;;5091851;28;27601;-60
2021/03/29 08:38:54;;;;;;;3.38;2.30;;;24.70;35.20;;;;;;5107108;28;27966;-59
2021/03/29 08:41:39;;;;;;;3.58;2.10;;;25.10;34.80;;;;;;5107320;28;27428;-59
2021/03/29 08:44:23;;;;;;;5.60;2.22;;;25.40;34.40;;;;;;5071072;28;27345;-59
2021/03/29 08:47:10;;;;;;;3.63;2.38;;;25.80;34.00;;;;;;5086673;28;27379;-59
2021/03/29 08:49:59;;;;;;;8.70;2.45;;;26.10;33.40;;;;;;5086587;28;27364;-59
2021/03/29 08:52:47;;;;;;;5.97;2.50;;;26.40;33.30;;;;;;5086034;28;27416;-59
2021/03/29 08:55:33;;;;;;;6.65;2.35;;;26.70;32.70;;;;;;5086715;28;27305;-59
2021/03/29 08:58:18;;;;;;;6.10;2.10;;;27.00;32.90;;;;;;5086469;28;27347;-59
2021/03/29 09:01:03;;;;;;;4.07;2.13;;;27.30;32.50;;;;;;5086687;28;27388;-59
2021/03/29 09:03:59;;;;;;;6.65;2.15;;;27.70;32.40;;;;;;5086656;28;27386;-59
2021/03/29 09:06:43;;;;;;;4.95;2.58;;;28.00;32.00;;;;;;5085933;28;27368;-59
2021/03/29 09:09:28;;;;;;;5.72;2.13;;;28.30;31.80;;;;;;5086360;28;27391;-59
2021/03/29 09:12:26;;;;;;;7.60;2.42;;;28.60;31.10;;;;;;5071056;28;27381;-59
2021/03/29 09:15:15;;;;;;;3.65;2.00;;;28.90;30.80;;;;;;5086179;28;27497;-59
2021/03/29 09:18:06;;;;;;;4.22;2.00;;;29.10;31.00;;;;;;5086483;28;27405;-59
2021/03/29 09:20:51;;;;;;;5.53;2.53;;;29.30;30.80;;;;;;5086327;28;27439;-60
2021/03/29 09:23:36;;;;;;;5.90;2.63;;;29.50;30.50;;;;;;5086092;28;27942;-60
2021/03/29 09:26:25;;;;;;;8.57;3.38;;;29.80;30.40;;;;;;5086278;28;27424;-60
2021/03/29 09:29:41;;;;;;;4.00;2.35;;;30.00;30.50;;;;;;5086252;28;27401;-60
2021/03/29 09:32:25;;;;;;;3.60;2.40;;;30.20;30.20;;;;;;5085774;28;27340;-60
2021/03/29 09:35:12;;;;;;;3.55;1.98;;;30.40;29.90;;;;;;5084666;28;27459;-60
2021/03/29 09:37:57;;;;;;;4.45;2.17;;;30.60;29.60;;;;;;5085825;28;27439;-60
2021/03/29 09:40:42;;;;;;;3.75;2.35;;;30.80;29.80;;;;;;5085380;28;27556;-60
2021/03/29 09:43:26;;;;;;;3.10;2.38;;;31.00;29.70;;;;;;5082296;28;27420;-60
2021/03/29 09:46:11;;;;;;;7.50;2.05;;;31.10;29.50;;;;;;5106358;28;27866;-60
2021/03/29 09:49:08;;;;;;;7.75;2.03;;;31.30;30.00;;;;;;5090937;28;27468;-62
2021/03/29 09:52:02;;;;;;;3.13;1.88;;;31.50;29.10;;;;;;5106132;28;27371;-60
2021/03/29 09:54:49;;;;;;;4.60;2.30;;;31.70;29.00;;;;;;5106041;28;27348;-60
2021/03/29 09:57:42;;;;;;;2.55;2.20;;;31.90;28.80;;;;;;5090869;28;27888;-60
2021/03/29 10:00:27;;;;;;;4.82;2.50;;;32.10;28.90;;;;;;5105908;28;27341;-61
2021/03/29 10:03:16;;;;;;;6.28;2.30;;;32.30;29.20;;;;;;5076722;28;27347;-60
2021/03/29 10:06:01;;;;;;;4.55;2.22;;;32.60;28.60;;;;;;5105814;28;27456;-60
2021/03/29 10:09:04;;;;;;;2.15;1.80;;;32.80;28.40;;;;;;5104193;28;27421;-60
2021/03/29 10:11:49;;;;;;;2.85;2.05;;;33.00;28.20;;;;;;5105780;28;27341;-60
2021/03/29 10:14:35;;;;;;;6.93;1.85;;;33.20;28.10;;;;;;5106041;28;27367;-60
2021/03/29 10:17:20;;;;;;;2.83;1.95;;;33.40;28.20;;;;;;5105302;28;27485;-60
2021/03/29 10:20:08;;;;;;;5.50;2.17;;;33.60;27.90;;;;;;5102358;28;27386;-60
2021/03/29 10:22:53;;;;;;;3.67;1.80;;;33.80;27.60;;;;;;5087334;28;27463;-60
2021/03/29 10:25:38;;;;;;;5.60;1.80;;;34.00;27.00;;;;;;5105856;28;27399;-60
2021/03/29 10:28:22;;;;;;;2.92;1.60;;;34.20;26.90;;;;;;5105458;28;27419;-60
2021/03/29 10:31:06;;;;;;;2.83;1.70;;;34.30;26.90;;;;;;5105669;28;27387;-60
2021/03/29 10:33:51;;;;;;;4.40;2.13;;;34.40;26.60;;;;;;5105576;28;27491;-60
2021/03/29 10:36:35;;;;;;;2.65;1.88;;;34.50;26.30;;;;;;5104873;28;27407;-61
2021/03/29 10:39:20;;;;;;;2.47;1.80;;;34.60;26.50;;;;;;5105346;28;27352;-60
2021/03/29 10:42:05;;;;;;;6.07;2.03;;;34.70;26.40;;;;;;5105201;28;27407;-60
2021/03/29 10:44:49;;;;;;;3.05;1.42;;;34.90;26.10;;;;;;5081482;28;27530;-60
2021/03/29 10:47:34;;;;;;;6.47;2.33;;;35.00;26.00;;;;;;5084815;28;27399;-60
2021/03/29 10:50:20;;;;;;;4.90;1.58;;;35.20;25.60;;;;;;5084698;28;27334;-60
2021/03/29 10:53:04;;;;;;;3.05;1.65;;;35.30;25.80;;;;;;5081387;28;27402;-60
2021/03/29 10:55:49;;;;;;;4.13;1.70;;;35.40;26.10;;;;;;5084788;28;27332;-60
2021/03/29 10:58:35;;;;;;;5.57;1.92;;;35.50;25.80;;;;;;5084652;28;27412;-60
2021/03/29 11:01:20;;;;;;;4.45;1.90;;;35.60;26.10;;;;;;5084773;28;27382;-60
2021/03/29 11:04:05;;;;;;;4.20;1.90;;;35.70;25.60;;;;;;5083423;28;27400;-60
2021/03/29 11:06:49;;;;;;;2.65;1.50;;;35.80;24.60;;;;;;5084477;28;27399;-60
2021/03/29 11:09:34;;;;;;;7.07;2.10;;;35.90;24.90;;;;;;5080478;28;27371;-60
2021/03/29 11:12:18;;;;;;;3.05;1.52;;;36.00;24.60;;;;;;5084705;28;27312;-60
2021/03/29 11:15:03;;;;;;;3.58;1.77;;;36.10;24.90;;;;;;5084565;28;27397;-60
2021/03/29 11:17:48;;;;;;;7.03;2.00;;;36.20;24.90;;;;;;5083846;28;27448;-60
2021/03/29 11:20:32;;;;;;;3.08;1.70;;;36.30;24.40;;;;;;5080521;28;27394;-60
2021/03/29 11:23:17;;;;;;;7.40;2.17;;;36.30;24.10;;;;;;5084412;28;27327;-60
2021/03/29 11:26:01;;;;;;;4.93;1.80;;;36.40;24.00;;;;;;5084324;28;27325;-60
2021/03/29 11:28:45;;;;;;;3.38;1.70;;;36.50;24.40;;;;;;5084386;28;27402;-60
2021/03/29 11:31:30;;;;;;;4.60;2.03;;;36.50;24.70;;;;;;5083866;28;27399;-60
2021/03/29 11:34:14;;;;;;;3.83;1.70;;;36.60;24.90;;;;;;5084053;28;27461;-60
2021/03/29 11:36:59;;;;;;;3.13;1.77;;;36.60;24.60;;;;;;5083270;28;27873;-60
2021/03/29 11:39:43;;;;;;;4.57;1.33;;;36.60;25.10;;;;;;5083460;28;27467;-60
2021/03/29 11:42:28;;;;;;;5.30;1.40;;;36.70;25.20;;;;;;5084133;28;27474;-60
2021/03/29 11:45:12;;;;;;;3.72;1.20;;;36.80;25.40;;;;;;5098953;28;27488;-60
2021/03/29 11:47:58;;;;;;;3.15;1.45;;;36.80;25.40;;;;;;5104421;28;27411;-60
2021/03/29 11:50:42;;;;;;;4.03;1.50;;;36.90;25.30;;;;;;5104089;28;27436;-60
2021/03/29 11:53:27;;;;;;;2.58;1.48;;;36.90;25.10;;;;;;5101066;28;27393;-61
2021/03/29 11:56:11;;;;;;;3.58;1.63;;;36.90;25.00;;;;;;5104140;27;27467;-59
2021/03/29 11:58:56;;;;;;;9.77;1.92;;;36.60;18.70;;;;;;5104396;28;27479;-59
2021/03/29 12:01:46;;;;;;;7.30;2.15;;;35.40;18.80;;;;;;5107833;28;27445;-59
2021/03/29 12:04:38;;;;;;;7.22;1.80;;;34.60;18.90;;;;;;5079752;28;27528;-59
2021/03/29 12:07:47;;;;;;;8.98;1.92;;;34.20;19.50;;;;;;5107877;28;27406;-60
2021/03/29 12:13:34;;;;;;;21.85;3.55;;;33.10;22.30;;;;;;5107652;28;27498;-60
2021/03/29 12:16:19;;;;;;;16.75;2.50;;;32.80;22.90;;;;;;5107331;28;27423;-60
2021/03/29 12:19:04;;;;;;;13.32;2.15;;;32.70;22.60;;;;;;5089269;28;27461;-60
2021/03/29 12:21:53;;;;;;;69.25;14.35;;;32.70;23.10;;;;;;5107661;28;27435;-60
2021/03/29 12:24:41;;;;;;;35.83;7.22;;;32.60;30.00;;;;;;5107078;28;27483;-60
2021/03/29 12:27:25;;;;;;;30.98;6.75;;;32.70;29.20;;;;;;5104124;28;27325;-60
2021/03/29 12:30:16;;;;;;;16.20;4.53;;;33.00;29.90;;;;;;5107226;28;27318;-60
2021/03/29 12:33:01;;;;;;;19.83;4.80;;;33.40;28.80;;;;;;5107344;28;27405;-60
2021/03/29 12:35:45;;;;;;;18.23;4.10;;;33.70;29.20;;;;;;5107366;28;27481;-60
2021/03/29 12:38:33;;;;;;;13.27;3.42;;;34.10;29.40;;;;;;5107121;28;27466;-60
2021/03/29 12:41:18;;;;;;;16.98;3.17;;;34.40;29.30;;;;;;5089145;28;27426;-60
2021/03/29 12:44:09;;;;;;;9.45;3.20;;;34.60;28.80;;;;;;5106679;28;27939;-60
2021/03/29 12:46:57;;;;;;;9.43;2.58;;;34.90;29.10;;;;;;5106960;28;27518;-60
2021/03/29 12:49:42;;;;;;;7.93;2.13;;;35.00;28.70;;;;;;5103717;28;27322;-60
2021/03/29 12:52:27;;;;;;;6.95;2.80;;;35.20;28.80;;;;;;5106602;28;27631;-61
2021/03/29 12:55:16;;;;;;;10.05;2.88;;;35.30;28.20;;;;;;5091594;28;27831;-60
2021/03/29 12:58:00;;;;;;;7.85;2.25;;;35.40;28.00;;;;;;5106807;28;27521;-60
2021/03/29 13:00:45;;;;;;;9.10;2.47;;;35.50;28.30;;;;;;5106887;28;27418;-60
2021/03/29 13:03:34;;;;;;;4.43;1.90;;;35.50;28.60;;;;;;5107080;28;27513;-61
2021/03/29 13:06:24;;;;;;;7.53;1.92;;;35.70;28.80;;;;;;5091966;28;27586;-61
2021/03/29 13:09:17;;;;;;;8.40;1.88;;;35.70;29.30;;;;;;5091941;28;27408;-61
2021/03/29 13:12:02;;;;;;;8.73;2.10;;;35.80;28.80;;;;;;5093215;28;27337;-60
2021/03/29 13:15:06;;;;;;;8.85;2.15;;;35.80;28.70;;;;;;5077255;28;27352;-61
2021/03/29 13:17:51;;;;;;;9.48;2.10;;;35.80;28.30;;;;;;5106783;28;27391;-60
2021/03/29 13:20:35;;;;;;;7.18;2.20;;;35.80;28.50;;;;;;5106391;28;27499;-61
2021/03/29 13:23:20;;;;;;;5.90;1.70;;;35.80;28.50;;;;;;5103614;28;27479;-60
2021/03/29 13:26:05;;;;;;;7.90;1.65;;;35.80;28.20;;;;;;5103352;28;27475;-60
2021/03/29 13:28:50;;;;;;;6.60;1.80;;;35.80;28.70;;;;;;5106310;28;27873;-60
2021/03/29 13:31:35;;;;;;;5.30;1.83;;;35.80;28.80;;;;;;5106532;28;27506;-60
2021/03/29 13:34:20;;;;;;;4.55;1.63;;;35.80;28.50;;;;;;5106667;28;26857;-60
2021/03/29 13:37:04;;;;;;;4.30;1.80;;;35.80;28.90;;;;;;5106469;28;27483;-60
2021/03/29 13:39:49;;;;;;;6.38;1.80;;;35.80;29.00;;;;;;5090965;28;27996;-60
2021/03/29 13:42:34;;;;;;;5.63;1.35;;;35.70;29.20;;;;;;5106197;28;27436;-61
2021/03/29 13:45:19;;;;;;;3.42;1.80;;;35.70;28.90;;;;;;5084477;28;27420;-60
2021/03/29 13:48:04;;;;;;;4.25;1.55;;;35.60;28.50;;;;;;5084605;28;27408;-60
2021/03/29 13:50:53;;;;;;;1.98;1.50;;;35.60;28.90;;;;;;5085876;28;27872;-60
2021/03/29 13:54:00;;;;;;;5.63;1.80;;;35.50;29.20;;;;;;5085488;28;27387;-60
2021/03/29 13:56:44;;;;;;;6.13;2.10;;;35.40;28.90;;;;;;5085104;28;27453;-60
2021/03/29 13:59:29;;;;;;;3.17;1.60;;;35.30;28.60;;;;;;5084653;28;27352;-60
2021/03/29 14:02:13;;;;;;;7.18;1.92;;;35.30;29.10;;;;;;5085368;28;27400;-61
2021/03/29 14:04:58;;;;;;;5.95;1.80;;;35.10;29.80;;;;;;5081697;28;27313;-60
2021/03/29 14:07:43;;;;;;;5.20;1.95;;;35.10;29.90;;;;;;5085095;28;27347;-60
2021/03/29 14:10:28;;;;;;;5.30;2.25;;;34.90;29.30;;;;;;5085483;28;27358;-60
2021/03/29 14:13:13;;;;;;;5.13;1.50;;;34.90;29.80;;;;;;5084772;28;27865;-60
2021/03/29 14:15:57;;;;;;;8.23;1.92;;;34.80;29.80;;;;;;5082311;28;27346;-61
2021/03/29 14:18:42;;;;;;;5.97;1.92;;;34.70;30.60;;;;;;5081529;28;27388;-60
2021/03/29 14:21:27;;;;;;;5.03;1.60;;;34.50;30.10;;;;;;5085103;28;27317;-60
2021/03/29 14:24:11;;;;;;;6.85;1.60;;;34.40;29.50;;;;;;5085362;28;27359;-61
2021/03/29 14:26:56;;;;;;;4.82;1.60;;;34.30;29.10;;;;;;5084838;28;27325;-61
2021/03/29 14:29:41;;;;;;;6.45;2.00;;;34.10;28.80;;;;;;5085025;28;27406;-60
2021/03/29 14:32:26;;;;;;;2.90;1.50;;;34.00;29.10;;;;;;5084290;28;27400;-61
2021/03/29 14:44:29;;;;;;;5.22;1.17;;;33.50;31.10;;;;;;5089128;28;27481;-60